createdAt,value
2022-10-07T00:00:53.835Z,12.06
2022-10-07T00:03:22.326Z,12.05
2022-10-07T00:06:00.190Z,12.05
2022-10-07T00:08:27.173Z,12.06
2022-10-07T00:10:53.875Z,12.08
2022-10-07T00:13:20.379Z,12.05
2022-10-07T00:15:46.890Z,12.02
2022-10-07T00:18:13.464Z,12.01
2022-10-07T00:20:40.610Z,11.99
2022-10-07T00:23:07.955Z,11.96
2022-10-07T00:25:37.946Z,11.98
2022-10-07T00:28:05.409Z,11.99
2022-10-07T00:30:32.001Z,11.99
2022-10-07T00:32:58.632Z,12.04
2022-10-07T00:35:25.127Z,12.06
2022-10-07T00:37:51.737Z,12.10
2022-10-07T00:40:18.146Z,12.13
2022-10-07T00:42:44.464Z,12.14
2022-10-07T00:45:19.468Z,12.10
2022-10-07T00:47:50.127Z,12.07
2022-10-07T00:50:28.679Z,12.02
2022-10-07T00:52:59.574Z,12.00
2022-10-07T00:55:28.760Z,11.98
2022-10-07T00:57:58.586Z,12.00
2022-10-07T01:00:25.194Z,12.01
2022-10-07T01:02:52.224Z,12.06
2022-10-07T01:05:19.659Z,12.06
2022-10-07T01:07:50.574Z,12.06
2022-10-07T01:10:20.285Z,12.06
2022-10-07T01:12:49.447Z,12.06
2022-10-07T01:15:34.416Z,12.10
2022-10-07T01:18:15.881Z,12.12
2022-10-07T01:21:06.339Z,12.09
2022-10-07T01:24:03.673Z,12.08
2022-10-07T01:27:01.593Z,12.07
2022-10-07T01:29:37.061Z,12.06
2022-10-07T01:32:29.017Z,12.08
2022-10-07T01:34:57.395Z,12.05
2022-10-07T01:37:27.079Z,12.07
2022-10-07T01:40:01.230Z,12.07
2022-10-07T01:42:29.072Z,12.08
2022-10-07T01:44:58.652Z,12.10
2022-10-07T01:47:26.442Z,12.06
2022-10-07T01:49:53.046Z,12.05
2022-10-07T01:52:57.398Z,12.07
2022-10-07T01:55:59.032Z,12.10
2022-10-07T01:58:52.796Z,12.10
2022-10-07T02:01:39.783Z,12.09
2022-10-07T02:04:17.780Z,12.09
2022-10-07T02:06:57.783Z,12.12
2022-10-07T02:09:29.065Z,12.12
2022-10-07T02:12:11.706Z,12.12
2022-10-07T02:14:45.882Z,12.12
2022-10-07T02:17:20.528Z,12.11
2022-10-07T02:19:51.211Z,12.14
2022-10-07T02:22:18.457Z,12.09
2022-10-07T02:24:47.894Z,12.12
2022-10-07T02:27:20.636Z,12.12
2022-10-07T02:29:49.296Z,12.13
2022-10-07T02:32:20.444Z,12.11
2022-10-07T02:34:54.062Z,12.13
2022-10-07T02:37:26.527Z,12.15
2022-10-07T02:39:54.729Z,12.14
2022-10-07T02:42:30.411Z,12.15
2022-10-07T02:45:06.580Z,12.15
2022-10-07T02:47:47.724Z,12.16
2022-10-07T02:50:19.296Z,12.13
2022-10-07T02:52:46.503Z,12.10
2022-10-07T02:55:17.309Z,12.08
2022-10-07T02:57:50.078Z,12.10
2022-10-07T03:00:18.286Z,12.11
2022-10-07T03:02:50.875Z,12.13
2022-10-07T03:05:19.113Z,12.12
2022-10-07T03:07:47.618Z,12.13
2022-10-07T03:10:14.769Z,12.14
2022-10-07T03:12:41.116Z,12.13
2022-10-07T03:15:08.654Z,12.13
2022-10-07T03:17:35.020Z,12.15
2022-10-07T03:20:01.459Z,12.14
2022-10-07T03:22:27.952Z,12.15
2022-10-07T03:24:54.302Z,12.12
2022-10-07T03:27:20.986Z,12.08
2022-10-07T03:29:47.382Z,12.04
2022-10-07T03:32:13.780Z,12.01
2022-10-07T03:34:40.101Z,12.00
2022-10-07T03:37:06.622Z,11.98
2022-10-07T03:39:33.095Z,11.97
2022-10-07T03:41:59.428Z,11.92
2022-10-07T03:44:25.951Z,11.91
2022-10-07T03:46:52.544Z,11.90
2022-10-07T03:49:19.112Z,11.86
2022-10-07T03:51:45.958Z,11.85
2022-10-07T03:54:12.428Z,11.84
2022-10-07T03:56:39.026Z,11.85
2022-10-07T03:59:05.448Z,11.84
2022-10-07T04:01:32.296Z,11.84
2022-10-07T04:03:59.449Z,11.86
2022-10-07T04:06:26.275Z,11.87
2022-10-07T04:08:53.819Z,11.84
2022-10-07T04:11:20.154Z,11.82
2022-10-07T04:13:46.577Z,11.82
2022-10-07T04:16:12.959Z,11.83
2022-10-07T04:18:39.984Z,11.84
2022-10-07T04:21:06.329Z,11.86
2022-10-07T04:23:32.646Z,11.85
2022-10-07T04:25:59.213Z,11.83
2022-10-07T04:28:26.187Z,11.82
2022-10-07T04:30:53.399Z,11.83
2022-10-07T04:33:22.183Z,11.82
2022-10-07T04:35:49.551Z,11.83
2022-10-07T04:38:17.364Z,11.82
2022-10-07T04:40:49.242Z,11.81
2022-10-07T04:43:21.131Z,11.78
2022-10-07T04:45:59.770Z,11.77
2022-10-07T04:48:26.144Z,11.74
2022-10-07T04:50:53.149Z,11.72
2022-10-07T04:53:20.698Z,11.69
2022-10-07T04:55:50.126Z,11.65
2022-10-07T04:58:17.640Z,11.61
2022-10-07T05:00:46.565Z,11.59
2022-10-07T05:03:15.206Z,11.53
2022-10-07T05:05:43.238Z,11.46
2022-10-07T05:08:10.562Z,11.40
2022-10-07T05:10:39.187Z,11.34
2022-10-07T05:13:07.502Z,11.27
2022-10-07T05:15:33.876Z,11.25
2022-10-07T05:18:00.546Z,11.23
2022-10-07T05:20:27.187Z,11.23
2022-10-07T05:22:53.660Z,11.20
2022-10-07T05:25:20.516Z,11.19
2022-10-07T05:27:50.921Z,11.15
2022-10-07T05:30:17.618Z,11.12
2022-10-07T05:32:44.055Z,11.11
2022-10-07T05:35:10.665Z,11.12
2022-10-07T05:37:36.993Z,11.11
2022-10-07T05:40:03.793Z,11.11
2022-10-07T05:42:30.220Z,11.12
2022-10-07T05:44:56.606Z,11.10
2022-10-07T05:47:23.102Z,11.09
2022-10-07T05:49:49.518Z,11.09
2022-10-07T05:52:15.837Z,11.09
2022-10-07T05:54:42.540Z,11.08
2022-10-07T05:57:09.298Z,11.10
2022-10-07T05:59:35.974Z,11.12
2022-10-07T06:02:02.650Z,11.14
2022-10-07T06:04:29.132Z,11.13
2022-10-07T06:06:55.520Z,11.10
2022-10-07T06:09:21.892Z,11.13
2022-10-07T06:11:48.300Z,11.17
2022-10-07T06:14:15.050Z,11.13
2022-10-07T06:16:41.568Z,11.18
2022-10-07T06:19:08.263Z,11.15
2022-10-07T06:21:34.670Z,11.14
2022-10-07T06:24:02.132Z,11.17
2022-10-07T06:26:28.477Z,11.20
2022-10-07T06:28:54.893Z,11.24
2022-10-07T06:31:22.298Z,11.29
2022-10-07T06:33:49.783Z,11.43
2022-10-07T06:36:16.328Z,11.42
2022-10-07T06:38:47.165Z,11.49
2022-10-07T06:41:14.007Z,11.53
2022-10-07T06:43:40.528Z,11.49
2022-10-07T06:46:10.061Z,11.49
2022-10-07T06:48:36.508Z,11.56
2022-10-07T06:51:03.513Z,11.64
2022-10-07T06:53:30.931Z,11.71
2022-10-07T06:56:04.343Z,11.90
2022-10-07T06:58:30.902Z,11.98
2022-10-07T07:00:58.961Z,12.12
2022-10-07T07:03:26.429Z,12.13
2022-10-07T07:05:54.475Z,12.23
2022-10-07T07:08:25.536Z,12.30
2022-10-07T07:10:52.014Z,12.43
2022-10-07T07:13:18.697Z,12.54
2022-10-07T07:15:54.948Z,12.73
2022-10-07T07:18:21.604Z,12.71
2022-10-07T07:20:48.014Z,12.61
2022-10-07T07:23:14.643Z,12.70
2022-10-07T07:25:41.609Z,12.79
2022-10-07T07:28:08.332Z,12.90
2022-10-07T07:30:35.532Z,13.18
2022-10-07T07:33:01.976Z,13.34
2022-10-07T07:35:30.045Z,13.46
2022-10-07T07:37:56.626Z,13.62
2022-10-07T07:40:23.100Z,13.70
2022-10-07T07:42:49.653Z,13.60
2022-10-07T07:45:16.388Z,13.84
2022-10-07T07:47:43.038Z,14.18
2022-10-07T07:50:09.858Z,14.22
2022-10-07T07:52:36.407Z,14.31
2022-10-07T07:55:03.018Z,14.27
2022-10-07T07:57:30.458Z,14.30
2022-10-07T07:59:57.211Z,14.65
2022-10-07T08:02:23.621Z,14.97
2022-10-07T08:04:50.240Z,15.19
2022-10-07T08:07:16.737Z,15.42
2022-10-07T08:09:43.055Z,15.27
2022-10-07T08:12:10.499Z,15.28
2022-10-07T08:14:37.139Z,15.38
2022-10-07T08:17:03.609Z,16.05
2022-10-07T08:19:29.970Z,16.05
2022-10-07T08:21:57.174Z,15.83
2022-10-07T08:24:24.090Z,16.05
2022-10-07T08:26:50.498Z,16.26
2022-10-07T08:29:17.063Z,16.40
2022-10-07T08:31:43.856Z,16.55
2022-10-07T08:34:11.285Z,16.10
2022-10-07T08:36:38.203Z,16.22
2022-10-07T08:39:05.877Z,16.69
2022-10-07T08:41:42.889Z,17.25
2022-10-07T08:44:16.943Z,16.88
2022-10-07T08:47:22.439Z,17.17
2022-10-07T08:50:19.766Z,16.92
2022-10-07T08:52:54.131Z,16.97
2022-10-07T08:55:42.023Z,17.39
2022-10-07T08:58:23.445Z,16.96
2022-10-07T09:00:56.690Z,17.39
2022-10-07T09:03:28.976Z,17.45
2022-10-07T09:05:56.542Z,17.14
2022-10-07T09:08:30.179Z,16.88
2022-10-07T09:11:05.807Z,17.25
2022-10-07T09:13:38.366Z,17.22
2022-10-07T09:16:08.909Z,17.39
2022-10-07T09:18:39.759Z,17.50
2022-10-07T09:21:13.029Z,17.43
2022-10-07T09:23:39.595Z,17.39
2022-10-07T09:26:11.829Z,17.86
2022-10-07T09:28:38.481Z,17.53
2022-10-07T09:31:05.749Z,17.65
2022-10-07T09:33:43.239Z,17.94
2022-10-07T09:36:12.317Z,17.97
2022-10-07T09:38:45.881Z,17.99
2022-10-07T09:41:16.930Z,18.44
2022-10-07T09:43:55.998Z,18.68
2022-10-07T09:46:34.356Z,18.82
2022-10-07T09:49:02.445Z,18.65
2022-10-07T09:51:28.865Z,18.24
2022-10-07T09:54:00.862Z,18.51
2022-10-07T09:56:40.192Z,19.03
2022-10-07T09:59:25.913Z,18.93
2022-10-07T10:02:12.961Z,18.83
2022-10-07T10:04:47.735Z,18.64
2022-10-07T10:07:25.453Z,19.31
2022-10-07T10:09:54.441Z,19.20
2022-10-07T10:12:22.266Z,18.75
2022-10-07T10:14:57.833Z,18.70
2022-10-07T10:17:35.901Z,19.30
2022-10-07T10:20:24.198Z,19.44
2022-10-07T10:22:52.238Z,19.63
2022-10-07T10:25:39.014Z,19.70
2022-10-07T10:28:15.245Z,19.24
2022-10-07T10:30:53.963Z,19.16
2022-10-07T10:33:40.500Z,18.92
2022-10-07T10:36:22.876Z,19.07
2022-10-07T10:39:24.354Z,18.86
2022-10-07T10:41:56.734Z,19.03
2022-10-07T10:44:37.351Z,19.61
2022-10-07T10:47:06.504Z,19.76
2022-10-07T10:49:53.167Z,20.21
2022-10-07T10:52:58.170Z,20.46
2022-10-07T10:55:40.061Z,19.84
2022-10-07T10:58:22.600Z,19.95
2022-10-07T11:00:59.731Z,20.25
2022-10-07T11:03:45.702Z,20.39
2022-10-07T11:06:16.680Z,20.21
2022-10-07T11:08:44.358Z,19.84
2022-10-07T11:11:17.268Z,19.93
2022-10-07T11:13:52.389Z,19.12
2022-10-07T11:16:43.675Z,19.81
2022-10-07T11:19:26.767Z,20.40
2022-10-07T11:21:56.365Z,20.13
2022-10-07T11:24:36.217Z,19.70
2022-10-07T11:27:17.085Z,20.08
2022-10-07T11:29:43.371Z,20.42
2022-10-07T11:32:17.916Z,20.74
2022-10-07T11:34:53.644Z,21.11
2022-10-07T11:37:42.773Z,20.67
2022-10-07T11:40:09.609Z,20.33
2022-10-07T11:42:50.622Z,20.95
2022-10-07T11:45:19.740Z,20.58
2022-10-07T11:47:53.639Z,20.64
2022-10-07T11:50:25.530Z,20.59
2022-10-07T11:52:59.979Z,20.93
2022-10-07T11:55:30.136Z,21.10
2022-10-07T11:57:59.495Z,20.67
2022-10-07T12:00:35.362Z,20.51
2022-10-07T12:03:32.493Z,20.66
2022-10-07T12:06:08.477Z,20.82
2022-10-07T12:08:38.864Z,20.58
2022-10-07T12:11:11.322Z,20.49
2022-10-07T12:13:37.668Z,20.93
2022-10-07T12:16:30.463Z,20.86
2022-10-07T12:19:09.794Z,20.63
2022-10-07T12:22:02.664Z,20.19
2022-10-07T12:24:34.679Z,20.36
2022-10-07T12:27:13.508Z,20.70
2022-10-07T12:29:54.419Z,20.66
2022-10-07T12:32:52.164Z,21.10
2022-10-07T12:35:53.096Z,21.24
2022-10-07T12:38:25.867Z,21.71
2022-10-07T12:41:11.101Z,21.74
2022-10-07T12:43:52.929Z,21.50
2022-10-07T12:46:22.476Z,21.33
2022-10-07T12:49:06.472Z,21.32
2022-10-07T12:51:38.187Z,21.20
2022-10-07T12:54:12.886Z,20.61
2022-10-07T12:56:43.229Z,20.90
2022-10-07T12:59:31.146Z,21.21
2022-10-07T13:02:16.153Z,21.37
2022-10-07T13:05:01.429Z,21.25
2022-10-07T13:07:49.510Z,20.61
2022-10-07T13:10:21.636Z,21.09
2022-10-07T13:12:55.771Z,20.77
2022-10-07T13:15:44.069Z,20.65
2022-10-07T13:18:20.753Z,20.74
2022-10-07T13:21:06.608Z,20.32
2022-10-07T13:23:33.707Z,20.04
2022-10-07T13:26:01.286Z,20.30
2022-10-07T13:28:44.406Z,20.40
2022-10-07T13:31:19.983Z,20.34
2022-10-07T13:33:46.841Z,20.10
2022-10-07T13:36:15.251Z,19.84
2022-10-07T13:38:41.795Z,20.12
2022-10-07T13:41:17.987Z,20.18
2022-10-07T13:43:45.014Z,20.00
2022-10-07T13:46:12.732Z,19.97
2022-10-07T13:48:45.578Z,20.11
2022-10-07T13:51:26.994Z,19.70
2022-10-07T13:53:56.832Z,20.07
2022-10-07T13:56:28.090Z,20.33
2022-10-07T13:58:57.350Z,20.49
2022-10-07T14:01:27.880Z,20.47
2022-10-07T14:04:12.808Z,20.46
2022-10-07T14:06:53.303Z,20.49
2022-10-07T14:09:21.362Z,19.76
2022-10-07T14:11:53.432Z,20.03
2022-10-07T14:14:24.681Z,19.72
2022-10-07T14:16:55.936Z,19.79
2022-10-07T14:19:22.667Z,19.80
2022-10-07T14:21:49.121Z,20.11
2022-10-07T14:24:19.684Z,19.68
2022-10-07T14:26:46.469Z,19.67
2022-10-07T14:29:36.214Z,19.21
2022-10-07T14:32:10.322Z,19.15
2022-10-07T14:34:43.486Z,19.28
2022-10-07T14:37:27.180Z,19.27
2022-10-07T14:39:56.099Z,19.38
2022-10-07T14:42:33.651Z,19.29
2022-10-07T14:45:03.028Z,19.05
2022-10-07T14:47:29.586Z,19.14
2022-10-07T14:49:57.517Z,19.02
2022-10-07T14:52:27.196Z,18.99
2022-10-07T14:54:55.814Z,18.87
2022-10-07T14:57:22.285Z,18.98
2022-10-07T14:59:48.644Z,18.65
2022-10-07T15:02:15.081Z,18.73
2022-10-07T15:04:41.728Z,18.84
2022-10-07T15:07:09.305Z,18.42
2022-10-07T15:09:35.855Z,18.55
2022-10-07T15:12:02.415Z,18.45
2022-10-07T15:14:28.946Z,18.45
2022-10-07T15:16:55.440Z,18.44
2022-10-07T15:19:22.154Z,18.35
2022-10-07T15:21:48.550Z,18.38
2022-10-07T15:24:16.498Z,18.31
2022-10-07T15:26:43.096Z,18.27
2022-10-07T15:29:09.421Z,18.09
2022-10-07T15:31:36.660Z,18.00
2022-10-07T15:34:03.032Z,17.93
2022-10-07T15:36:29.790Z,17.87
2022-10-07T15:38:58.531Z,17.80
2022-10-07T15:41:39.711Z,17.61
2022-10-07T15:44:12.087Z,17.54
2022-10-07T15:46:38.568Z,17.59
2022-10-07T15:49:05.312Z,17.57
2022-10-07T15:51:32.013Z,17.50
2022-10-07T15:53:58.754Z,17.37
2022-10-07T15:56:25.523Z,17.34
2022-10-07T15:58:52.286Z,17.37
2022-10-07T16:01:19.166Z,17.32
2022-10-07T16:03:47.772Z,17.23
2022-10-07T16:06:23.859Z,17.11
2022-10-07T16:08:53.241Z,17.01
2022-10-07T16:11:19.752Z,16.97
2022-10-07T16:13:47.969Z,16.87
2022-10-07T16:16:17.048Z,16.82
2022-10-07T16:18:46.798Z,16.80
2022-10-07T16:21:16.928Z,16.74
2022-10-07T16:23:45.832Z,16.60
2022-10-07T16:26:15.501Z,16.54
2022-10-07T16:28:43.807Z,16.50
2022-10-07T16:31:10.370Z,16.49
2022-10-07T16:33:37.032Z,16.46
2022-10-07T16:36:13.616Z,16.38
2022-10-07T16:38:41.062Z,16.37
2022-10-07T16:41:07.539Z,16.31
2022-10-07T16:43:34.018Z,16.25
2022-10-07T16:46:05.901Z,16.19
2022-10-07T16:48:38.135Z,16.13
2022-10-07T16:51:07.868Z,16.05
2022-10-07T16:53:34.348Z,15.98
2022-10-07T16:56:01.869Z,15.88
2022-10-07T16:58:28.440Z,15.81
2022-10-07T17:01:03.141Z,15.72
2022-10-07T17:03:29.814Z,15.63
2022-10-07T17:05:59.803Z,15.52
2022-10-07T17:08:26.321Z,15.44
2022-10-07T17:10:52.763Z,15.36
2022-10-07T17:13:19.294Z,15.35
2022-10-07T17:15:50.502Z,15.34
2022-10-07T17:18:18.990Z,15.29
2022-10-07T17:20:51.600Z,15.23
2022-10-07T17:23:18.177Z,15.15
2022-10-07T17:25:44.873Z,15.11
2022-10-07T17:28:11.840Z,15.01
2022-10-07T17:30:38.290Z,14.95
2022-10-07T17:33:05.006Z,14.90
2022-10-07T17:35:31.460Z,14.91
2022-10-07T17:38:02.376Z,14.88
2022-10-07T17:40:30.316Z,14.79
2022-10-07T17:42:59.486Z,14.73
2022-10-07T17:45:25.801Z,14.61
2022-10-07T17:47:52.543Z,14.47
2022-10-07T17:50:18.935Z,14.33
2022-10-07T17:52:45.324Z,14.29
2022-10-07T17:55:11.701Z,14.26
2022-10-07T17:57:38.127Z,14.18
2022-10-07T18:00:05.302Z,14.11
2022-10-07T18:02:31.770Z,13.97
2022-10-07T18:04:58.196Z,13.90
2022-10-07T18:07:25.345Z,13.84
2022-10-07T18:09:51.865Z,13.83
2022-10-07T18:12:18.672Z,13.78
2022-10-07T18:14:47.678Z,13.79
2022-10-07T18:17:16.178Z,13.75
2022-10-07T18:19:42.672Z,13.71
2022-10-07T18:22:09.163Z,13.70
2022-10-07T18:24:35.512Z,13.66
2022-10-07T18:27:02.434Z,13.63
2022-10-07T18:29:31.936Z,13.55
2022-10-07T18:31:58.623Z,13.53
2022-10-07T18:34:25.008Z,13.52
2022-10-07T18:36:55.980Z,13.51
2022-10-07T18:39:24.221Z,13.46
2022-10-07T18:41:51.220Z,13.42
2022-10-07T18:44:17.630Z,13.38
2022-10-07T18:46:44.016Z,13.38
2022-10-07T18:49:10.863Z,13.37
2022-10-07T18:51:37.528Z,13.34
2022-10-07T18:54:04.244Z,13.27
2022-10-07T18:56:31.086Z,13.24
2022-10-07T18:58:58.072Z,13.22
2022-10-07T19:01:27.075Z,13.17
2022-10-07T19:03:59.438Z,13.17
2022-10-07T19:06:27.859Z,13.11
2022-10-07T19:08:56.347Z,13.09
2022-10-07T19:11:23.690Z,13.06
2022-10-07T19:13:53.846Z,13.04
2022-10-07T19:16:21.782Z,12.99
2022-10-07T19:18:50.512Z,12.92
2022-10-07T19:21:17.943Z,12.85
2022-10-07T19:23:44.462Z,12.85
2022-10-07T19:26:12.700Z,12.85
2022-10-07T19:28:40.049Z,12.79
2022-10-07T19:31:18.293Z,12.74
2022-10-07T19:33:46.383Z,12.76
2022-10-07T19:36:14.656Z,12.77
2022-10-07T19:38:42.430Z,12.75
2022-10-07T19:41:10.054Z,12.73
2022-10-07T19:43:36.504Z,12.68
2022-10-07T19:46:03.351Z,12.68
2022-10-07T19:48:30.983Z,12.66
2022-10-07T19:50:57.644Z,12.67
2022-10-07T19:53:24.428Z,12.65
2022-10-07T19:55:51.208Z,12.67
2022-10-07T19:58:17.690Z,12.68
2022-10-07T20:00:44.368Z,12.66
2022-10-07T20:03:10.973Z,12.66
2022-10-07T20:05:38.690Z,12.65
2022-10-07T20:08:10.042Z,12.56
2022-10-07T20:10:38.545Z,12.49
2022-10-07T20:13:04.833Z,12.46
2022-10-07T20:15:31.228Z,12.39
2022-10-07T20:17:57.782Z,12.29
2022-10-07T20:20:24.164Z,12.28
2022-10-07T20:22:50.642Z,12.25
2022-10-07T20:25:17.254Z,12.23
2022-10-07T20:27:44.000Z,12.22
2022-10-07T20:30:15.265Z,12.17
2022-10-07T20:32:44.640Z,12.13
2022-10-07T20:35:11.202Z,12.11
2022-10-07T20:37:38.405Z,12.07
2022-10-07T20:40:05.084Z,11.99
2022-10-07T20:42:33.674Z,11.92
2022-10-07T20:45:00.468Z,11.87
2022-10-07T20:47:32.716Z,11.84
2022-10-07T20:49:59.306Z,11.83
2022-10-07T20:52:30.966Z,11.80
2022-10-07T20:54:58.176Z,11.75
2022-10-07T20:57:27.626Z,11.68
2022-10-07T20:59:54.803Z,11.61
2022-10-07T21:02:22.888Z,11.56
2022-10-07T21:04:49.323Z,11.52
2022-10-07T21:07:17.754Z,11.52
2022-10-07T21:09:45.349Z,11.50
2022-10-07T21:12:14.447Z,11.48
2022-10-07T21:14:41.531Z,11.49
2022-10-07T21:17:08.139Z,11.50
2022-10-07T21:19:35.093Z,11.52
2022-10-07T21:22:02.997Z,11.51
2022-10-07T21:24:30.419Z,11.52
2022-10-07T21:26:56.762Z,11.50
2022-10-07T21:29:23.039Z,11.50
2022-10-07T21:31:49.573Z,11.51
2022-10-07T21:34:16.093Z,11.46
2022-10-07T21:36:44.440Z,11.48
2022-10-07T21:39:11.853Z,11.48
2022-10-07T21:41:38.286Z,11.47
2022-10-07T21:44:09.474Z,11.46
2022-10-07T21:46:36.410Z,11.47
2022-10-07T21:49:03.181Z,11.49
2022-10-07T21:51:29.673Z,11.52
2022-10-07T21:53:57.325Z,11.54
2022-10-07T21:56:25.087Z,11.47
2022-10-07T21:58:51.700Z,11.43
2022-10-07T22:01:20.225Z,11.40
2022-10-07T22:03:47.501Z,11.38
2022-10-07T22:06:16.430Z,11.37
2022-10-07T22:08:45.058Z,11.40
2022-10-07T22:11:16.990Z,11.38
2022-10-07T22:13:49.132Z,11.46
2022-10-07T22:16:18.020Z,11.54
2022-10-07T22:18:46.424Z,11.49
2022-10-07T22:21:15.709Z,11.48
2022-10-07T22:23:44.118Z,11.43
2022-10-07T22:26:12.417Z,11.44
2022-10-07T22:28:40.034Z,11.47
2022-10-07T22:31:09.167Z,11.53
2022-10-07T22:33:37.437Z,11.55
2022-10-07T22:36:08.769Z,11.47
2022-10-07T22:38:35.068Z,11.37
2022-10-07T22:41:03.866Z,11.33
2022-10-07T22:43:30.316Z,11.35
2022-10-07T22:45:58.432Z,11.31
2022-10-07T22:48:26.249Z,11.30
2022-10-07T22:50:53.112Z,11.29
2022-10-07T22:53:20.441Z,11.29
2022-10-07T22:55:46.844Z,11.24
2022-10-07T22:58:13.397Z,11.26
2022-10-07T23:00:39.817Z,11.26
2022-10-07T23:03:06.269Z,11.23
2022-10-07T23:05:36.416Z,11.22
2022-10-07T23:08:03.964Z,11.20
2022-10-07T23:10:30.305Z,11.17
2022-10-07T23:12:56.817Z,11.19
2022-10-07T23:15:23.212Z,11.21
2022-10-07T23:17:49.545Z,11.22
2022-10-07T23:20:15.930Z,11.22
2022-10-07T23:22:44.284Z,11.22
2022-10-07T23:25:10.971Z,11.19
2022-10-07T23:27:38.517Z,11.20
2022-10-07T23:30:05.636Z,11.19
2022-10-07T23:32:32.053Z,11.19
2022-10-07T23:34:58.516Z,11.17
2022-10-07T23:37:24.933Z,11.14
2022-10-07T23:39:51.277Z,11.13
2022-10-07T23:42:17.778Z,11.14
2022-10-07T23:44:44.153Z,11.15
2022-10-07T23:47:10.642Z,11.13
2022-10-07T23:49:37.030Z,11.14
2022-10-07T23:52:03.453Z,11.20
2022-10-07T23:54:29.838Z,11.21
2022-10-07T23:56:56.143Z,11.23
2022-10-07T23:59:22.606Z,11.26
